sensor_id;sensor_type;location;lat;lon;timestamp;pressure;altitude;pressure_sealevel;temperature;humidity
75157;BME280;63736;50.076;8.198;2022-12-07T00:01:06;99664.22;;;2.34;100.00
75157;BME280;63736;50.076;8.198;2022-12-07T00:03:32;99662.34;;;2.36;100.00
75157;BME280;63736;50.076;8.198;2022-12-07T00:05:58;99654.97;;;2.43;100.00
75157;BME280;63736;50.076;8.198;2022-12-07T00:08:24;99655.63;;;2.48;100.00
75157;BME280;63736;50.076;8.198;2022-12-07T00:10:49;99657.88;;;2.56;100.00
75157;BME280;63736;50.076;8.198;2022-12-07T00:13:14;99650.50;;;2.62;100.00
75157;BME280;63736;50.076;8.198;2022-12-07T00:15:40;99644.09;;;2.68;100.00
75157;BME280;63736;50.076;8.198;2022-12-07T00:18:05;99645.56;;;2.74;100.00
75157;BME280;63736;50.076;8.198;2022-12-07T00:20:30;99631.28;;;2.78;100.00
75157;BME280;63736;50.076;8.198;2022-12-07T00:22:56;99628.44;;;2.83;100.00
75157;BME280;63736;50.076;8.198;2022-12-07T00:25:21;99624.78;;;2.85;100.00
75157;BME280;63736;50.076;8.198;2022-12-07T00:27:46;99623.78;;;2.88;100.00
75157;BME280;63736;50.076;8.198;2022-12-07T00:30:12;99620.13;;;2.90;100.00
75157;BME280;63736;50.076;8.198;2022-12-07T00:32:37;99614.78;;;2.92;100.00
75157;BME280;63736;50.076;8.198;2022-12-07T00:35:03;99612.91;;;2.94;100.00
75157;BME280;63736;50.076;8.198;2022-12-07T00:37:28;99616.41;;;2.94;100.00
75157;BME280;63736;50.076;8.198;2022-12-07T00:39:53;99612.16;;;2.92;100.00
75157;BME280;63736;50.076;8.198;2022-12-07T00:42:18;99613.31;;;2.86;100.00
75157;BME280;63736;50.076;8.198;2022-12-07T00:44:44;99610.28;;;2.76;100.00
75157;BME280;63736;50.076;8.198;2022-12-07T00:47:09;99622.22;;;2.66;100.00
75157;BME280;63736;50.076;8.198;2022-12-07T00:49:35;99610.41;;;2.56;100.00
75157;BME280;63736;50.076;8.198;2022-12-07T00:52:00;99620.50;;;2.47;100.00
75157;BME280;63736;50.076;8.198;2022-12-07T00:54:25;99617.16;;;2.44;100.00
75157;BME280;63736;50.076;8.198;2022-12-07T00:56:51;99623.22;;;2.46;100.00
75157;BME280;63736;50.076;8.198;2022-12-07T00:59:16;99614.31;;;2.48;100.00
75157;BME280;63736;50.076;8.198;2022-12-07T01:01:41;99617.63;;;2.52;100.00
75157;BME280;63736;50.076;8.198;2022-12-07T01:04:07;99611.34;;;2.55;100.00
75157;BME280;63736;50.076;8.198;2022-12-07T01:06:32;99607.69;;;2.57;100.00
75157;BME280;63736;50.076;8.198;2022-12-07T01:08:58;99605.06;;;2.57;100.00
75157;BME280;63736;50.076;8.198;2022-12-07T01:11:26;99603.28;;;2.58;100.00
75157;BME280;63736;50.076;8.198;2022-12-07T01:13:54;99601.59;;;2.57;100.00
75157;BME280;63736;50.076;8.198;2022-12-07T01:16:21;99596.22;;;2.58;100.00
75157;BME280;63736;50.076;8.198;2022-12-07T01:18:49;99600.56;;;2.59;100.00
75157;BME280;63736;50.076;8.198;2022-12-07T01:21:18;99602.22;;;2.62;100.00
75157;BME280;63736;50.076;8.198;2022-12-07T01:23:44;99602.28;;;2.60;100.00
75157;BME280;63736;50.076;8.198;2022-12-07T01:26:11;99598.72;;;2.61;100.00
75157;BME280;63736;50.076;8.198;2022-12-07T01:28:37;99607.47;;;2.62;100.00
75157;BME280;63736;50.076;8.198;2022-12-07T01:31:08;99608.94;;;2.68;100.00
75157;BME280;63736;50.076;8.198;2022-12-07T01:33:37;99607.00;;;2.71;100.00
75157;BME280;63736;50.076;8.198;2022-12-07T01:36:04;99604.22;;;2.74;100.00
75157;BME280;63736;50.076;8.198;2022-12-07T01:38:31;99592.66;;;2.77;100.00
75157;BME280;63736;50.076;8.198;2022-12-07T01:40:57;99608.34;;;2.80;100.00
75157;BME280;63736;50.076;8.198;2022-12-07T01:43:25;99604.53;;;2.86;100.00
75157;BME280;63736;50.076;8.198;2022-12-07T01:45:51;99607.88;;;2.89;100.00
75157;BME280;63736;50.076;8.198;2022-12-07T01:48:20;99601.41;;;2.95;100.00
75157;BME280;63736;50.076;8.198;2022-12-07T01:50:48;99601.28;;;2.98;100.00
75157;BME280;63736;50.076;8.198;2022-12-07T01:53:15;99599.31;;;3.02;100.00
75157;BME280;63736;50.076;8.198;2022-12-07T01:55:44;99599.00;;;3.08;100.00
75157;BME280;63736;50.076;8.198;2022-12-07T01:58:12;99592.63;;;3.12;100.00
75157;BME280;63736;50.076;8.198;2022-12-07T02:00:38;99590.69;;;3.16;100.00
75157;BME280;63736;50.076;8.198;2022-12-07T02:03:08;99586.03;;;3.21;100.00
75157;BME280;63736;50.076;8.198;2022-12-07T02:05:37;99579.63;;;3.25;100.00
75157;BME280;63736;50.076;8.198;2022-12-07T02:08:03;99573.44;;;3.26;100.00
75157;BME280;63736;50.076;8.198;2022-12-07T02:10:30;99573.25;;;3.29;100.00
75157;BME280;63736;50.076;8.198;2022-12-07T02:15:34;99569.09;;;3.25;100.00
75157;BME280;63736;50.076;8.198;2022-12-07T02:20:57;99573.44;;;3.26;100.00
75157;BME280;63736;50.076;8.198;2022-12-07T02:29:12;99562.56;;;3.32;100.00
75157;BME280;63736;50.076;8.198;2022-12-07T02:31:44;99566.91;;;3.33;100.00
75157;BME280;63736;50.076;8.198;2022-12-07T02:37:09;99562.28;;;3.37;100.00
75157;BME280;63736;50.076;8.198;2022-12-07T02:39:45;99562.25;;;3.38;100.00
75157;BME280;63736;50.076;8.198;2022-12-07T02:42:17;99559.59;;;3.38;100.00
75157;BME280;63736;50.076;8.198;2022-12-07T02:44:45;99563.16;;;3.37;100.00
75157;BME280;63736;50.076;8.198;2022-12-07T02:47:14;99558.63;;;3.39;100.00
75157;BME280;63736;50.076;8.198;2022-12-07T02:49:40;99562.25;;;3.38;100.00
75157;BME280;63736;50.076;8.198;2022-12-07T02:52:06;99565.53;;;3.42;100.00
75157;BME280;63736;50.076;8.198;2022-12-07T02:54:32;99556.59;;;3.44;100.00
75157;BME280;63736;50.076;8.198;2022-12-07T02:57:24;99551.88;;;3.51;100.00
75157;BME280;63736;50.076;8.198;2022-12-07T03:00:07;99548.25;;;3.52;100.00
75157;BME280;63736;50.076;8.198;2022-12-07T03:08:06;99546.13;;;3.59;100.00
75157;BME280;63736;50.076;8.198;2022-12-07T03:18:36;99539.59;;;3.66;100.00
75157;BME280;63736;50.076;8.198;2022-12-07T03:21:08;99536.94;;;3.66;100.00
75157;BME280;63736;50.076;8.198;2022-12-07T03:23:37;99537.78;;;3.67;100.00
75157;BME280;63736;50.076;8.198;2022-12-07T03:26:05;99540.38;;;3.68;100.00
75157;BME280;63736;50.076;8.198;2022-12-07T03:28:37;99534.13;;;3.69;100.00
75157;BME280;63736;50.076;8.198;2022-12-07T03:31:13;99526.97;;;3.71;100.00
75157;BME280;63736;50.076;8.198;2022-12-07T03:34:06;99525.97;;;3.74;100.00
75157;BME280;63736;50.076;8.198;2022-12-07T03:39:23;99527.81;;;3.72;100.00
75157;BME280;63736;50.076;8.198;2022-12-07T03:41:51;99528.94;;;3.68;100.00
75157;BME280;63736;50.076;8.198;2022-12-07T03:44:17;99525.47;;;3.67;100.00
75157;BME280;63736;50.076;8.198;2022-12-07T03:49:28;99531.34;;;3.72;100.00
75157;BME280;63736;50.076;8.198;2022-12-07T03:55:09;99521.38;;;3.77;100.00
75157;BME280;63736;50.076;8.198;2022-12-07T03:57:36;99518.72;;;3.77;100.00
75157;BME280;63736;50.076;8.198;2022-12-07T04:00:04;99525.53;;;3.82;100.00
75157;BME280;63736;50.076;8.198;2022-12-07T04:02:31;99527.25;;;3.83;100.00
75157;BME280;63736;50.076;8.198;2022-12-07T04:04:57;99517.59;;;3.82;100.00
75157;BME280;63736;50.076;8.198;2022-12-07T04:07:22;99511.38;;;3.83;100.00
75157;BME280;63736;50.076;8.198;2022-12-07T04:09:48;99514.97;;;3.82;100.00
75157;BME280;63736;50.076;8.198;2022-12-07T04:12:13;99506.94;;;3.83;100.00
75157;BME280;63736;50.076;8.198;2022-12-07T04:14:38;99525.25;;;3.86;100.00
75157;BME280;63736;50.076;8.198;2022-12-07T04:17:04;99531.13;;;3.91;100.00
75157;BME280;63736;50.076;8.198;2022-12-07T04:19:31;99528.34;;;3.94;100.00
75157;BME280;63736;50.076;8.198;2022-12-07T04:21:58;99523.91;;;3.95;100.00
75157;BME280;63736;50.076;8.198;2022-12-07T04:24:24;99522.97;;;3.96;100.00
75157;BME280;63736;50.076;8.198;2022-12-07T04:26:50;99522.88;;;3.97;100.00
75157;BME280;63736;50.076;8.198;2022-12-07T04:29:16;99527.91;;;4.02;100.00
75157;BME280;63736;50.076;8.198;2022-12-07T04:31:42;99521.69;;;4.03;100.00
75157;BME280;63736;50.076;8.198;2022-12-07T04:34:09;99528.66;;;4.04;100.00
75157;BME280;63736;50.076;8.198;2022-12-07T04:36:35;99535.50;;;4.08;100.00
75157;BME280;63736;50.076;8.198;2022-12-07T04:39:01;99523.97;;;4.09;100.00
75157;BME280;63736;50.076;8.198;2022-12-07T04:41:26;99524.72;;;4.11;100.00
75157;BME280;63736;50.076;8.198;2022-12-07T04:43:56;99521.91;;;4.14;100.00
75157;BME280;63736;50.076;8.198;2022-12-07T04:46:23;99519.16;;;4.16;100.00
75157;BME280;63736;50.076;8.198;2022-12-07T04:48:49;99516.53;;;4.16;100.00
75157;BME280;63736;50.076;8.198;2022-12-07T04:51:18;99521.56;;;4.21;100.00
75157;BME280;63736;50.076;8.198;2022-12-07T04:53:44;99521.75;;;4.18;100.00
75157;BME280;63736;50.076;8.198;2022-12-07T04:56:09;99524.28;;;4.19;100.00
75157;BME280;63736;50.076;8.198;2022-12-07T04:58:34;99529.50;;;4.21;100.00
75157;BME280;63736;50.076;8.198;2022-12-07T05:00:59;99525.81;;;4.23;100.00
75157;BME280;63736;50.076;8.198;2022-12-07T05:03:25;99528.47;;;4.23;100.00
75157;BME280;63736;50.076;8.198;2022-12-07T05:05:50;99525.63;;;4.26;100.00
75157;BME280;63736;50.076;8.198;2022-12-07T05:08:15;99518.56;;;4.27;100.00
75157;BME280;63736;50.076;8.198;2022-12-07T05:10:40;99520.28;;;4.28;100.00
75157;BME280;63736;50.076;8.198;2022-12-07T05:13:06;99516.59;;;4.30;100.00
75157;BME280;63736;50.076;8.198;2022-12-07T05:15:31;99519.16;;;4.32;100.00
75157;BME280;63736;50.076;8.198;2022-12-07T05:17:56;99521.59;;;4.35;100.00
75157;BME280;63736;50.076;8.198;2022-12-07T05:20:22;99528.59;;;4.36;100.00
75157;BME280;63736;50.076;8.198;2022-12-07T05:22:47;99524.16;;;4.37;100.00
75157;BME280;63736;50.076;8.198;2022-12-07T05:25:12;99521.34;;;4.40;100.00
75157;BME280;63736;50.076;8.198;2022-12-07T05:27:37;99527.38;;;4.42;100.00
75157;BME280;63736;50.076;8.198;2022-12-07T05:30:04;99523.72;;;4.44;100.00
75157;BME280;63736;50.076;8.198;2022-12-07T05:32:30;99518.41;;;4.44;100.00
75157;BME280;63736;50.076;8.198;2022-12-07T05:34:55;99514.00;;;4.45;100.00
75157;BME280;63736;50.076;8.198;2022-12-07T05:37:21;99518.16;;;4.49;100.00
75157;BME280;63736;50.076;8.198;2022-12-07T05:39:46;99518.16;;;4.49;100.00
75157;BME280;63736;50.076;8.198;2022-12-07T05:42:11;99522.41;;;4.52;100.00
75157;BME280;63736;50.076;8.198;2022-12-07T05:44:37;99522.41;;;4.52;100.00
75157;BME280;63736;50.076;8.198;2022-12-07T05:47:02;99525.81;;;4.54;100.00
75157;BME280;63736;50.076;8.198;2022-12-07T05:49:28;99517.88;;;4.54;100.00
75157;BME280;63736;50.076;8.198;2022-12-07T05:51:53;99522.13;;;4.56;100.00
75157;BME280;63736;50.076;8.198;2022-12-07T05:54:18;99524.78;;;4.56;100.00
75157;BME280;63736;50.076;8.198;2022-12-07T05:56:43;99523.84;;;4.57;100.00
75157;BME280;63736;50.076;8.198;2022-12-07T05:59:09;99522.91;;;4.58;100.00
75157;BME280;63736;50.076;8.198;2022-12-07T06:02:04;99525.28;;;4.63;100.00
75157;BME280;63736;50.076;8.198;2022-12-07T06:04:32;99521.03;;;4.60;100.00
75157;BME280;63736;50.076;8.198;2022-12-07T06:06:58;99520.06;;;4.61;100.00
75157;BME280;63736;50.076;8.198;2022-12-07T06:09:25;99524.41;;;4.62;100.00
75157;BME280;63736;50.076;8.198;2022-12-07T06:11:51;99523.59;;;4.62;100.00
75157;BME280;63736;50.076;8.198;2022-12-07T06:14:36;99522.66;;;4.63;100.00
75157;BME280;63736;50.076;8.198;2022-12-07T06:17:01;99520.00;;;4.63;100.00
75157;BME280;63736;50.076;8.198;2022-12-07T06:19:27;99520.06;;;4.61;100.00
75157;BME280;63736;50.076;8.198;2022-12-07T06:21:53;99518.28;;;4.62;100.00
75157;BME280;63736;50.076;8.198;2022-12-07T06:24:18;99516.69;;;4.59;100.00
75157;BME280;63736;50.076;8.198;2022-12-07T06:26:44;99523.69;;;4.60;100.00
75157;BME280;63736;50.076;8.198;2022-12-07T06:29:10;99518.44;;;4.59;100.00
75157;BME280;63736;50.076;8.198;2022-12-07T06:31:36;99517.63;;;4.58;100.00
75157;BME280;63736;50.076;8.198;2022-12-07T06:34:04;99511.66;;;4.55;100.00
75157;BME280;63736;50.076;8.198;2022-12-07T06:36:29;99518.25;;;4.47;100.00
75157;BME280;63736;50.076;8.198;2022-12-07T06:38:55;99512.75;;;4.36;100.00
75157;BME280;63736;50.076;8.198;2022-12-07T06:41:21;99516.03;;;4.25;100.00
75157;BME280;63736;50.076;8.198;2022-12-07T06:43:47;99514.91;;;4.13;100.00
75157;BME280;63736;50.076;8.198;2022-12-07T06:46:13;99520.72;;;4.04;100.00
75157;BME280;63736;50.076;8.198;2022-12-07T06:48:39;99518.50;;;3.96;100.00
75157;BME280;63736;50.076;8.198;2022-12-07T06:51:04;99521.44;;;3.92;100.00
75157;BME280;63736;50.076;8.198;2022-12-07T06:53:29;99526.81;;;3.90;100.00
75157;BME280;63736;50.076;8.198;2022-12-07T06:55:55;99525.78;;;3.93;100.00
75157;BME280;63736;50.076;8.198;2022-12-07T06:58:20;99524.75;;;3.95;100.00
75157;BME280;63736;50.076;8.198;2022-12-07T07:00:48;99528.84;;;4.01;100.00
75157;BME280;63736;50.076;8.198;2022-12-07T07:03:13;99528.00;;;4.01;100.00
75157;BME280;63736;50.076;8.198;2022-12-07T07:05:38;99530.56;;;4.02;100.00
75157;BME280;63736;50.076;8.198;2022-12-07T07:08:04;99528.66;;;4.04;100.00
75157;BME280;63736;50.076;8.198;2022-12-07T07:10:30;99532.06;;;4.06;100.00
75157;BME280;63736;50.076;8.198;2022-12-07T07:12:55;99533.09;;;4.04;100.00
75157;BME280;63736;50.076;8.198;2022-12-07T07:15:20;99534.38;;;3.96;100.00
75157;BME280;63736;50.076;8.198;2022-12-07T07:17:46;99533.88;;;3.90;100.00
75157;BME280;63736;50.076;8.198;2022-12-07T07:20:11;99535.06;;;3.84;100.00
75157;BME280;63736;50.076;8.198;2022-12-07T07:22:37;99540.88;;;3.75;100.00
75157;BME280;63736;50.076;8.198;2022-12-07T07:25:02;99537.78;;;3.67;100.00
75157;BME280;63736;50.076;8.198;2022-12-07T07:27:27;99538.31;;;3.57;100.00
75157;BME280;63736;50.076;8.198;2022-12-07T07:29:53;99544.19;;;3.46;100.00
75157;BME280;63736;50.076;8.198;2022-12-07T07:32:18;99538.53;;;3.37;100.00
75157;BME280;63736;50.076;8.198;2022-12-07T07:34:43;99553.94;;;3.28;100.00
75157;BME280;63736;50.076;8.198;2022-12-07T07:37:09;99561.16;;;3.25;100.00
75157;BME280;63736;50.076;8.198;2022-12-07T07:39:36;99562.97;;;3.24;100.00
75157;BME280;63736;50.076;8.198;2022-12-07T07:42:01;99560.06;;;3.29;100.00
75157;BME280;63736;50.076;8.198;2022-12-07T07:44:26;99555.34;;;3.36;100.00
75157;BME280;63736;50.076;8.198;2022-12-07T07:46:51;99561.88;;;3.44;100.00
75157;BME280;63736;50.076;8.198;2022-12-07T07:49:17;99554.31;;;3.54;100.00
75157;BME280;63736;50.076;8.198;2022-12-07T07:51:42;99561.84;;;3.62;100.00
75157;BME280;63736;50.076;8.198;2022-12-07T07:54:07;99556.97;;;3.70;100.00
75157;BME280;63736;50.076;8.198;2022-12-07T07:56:32;99561.94;;;3.76;100.00
75157;BME280;63736;50.076;8.198;2022-12-07T07:58:58;99558.06;;;3.82;100.00
75157;BME280;63736;50.076;8.198;2022-12-07T08:01:23;99553.31;;;3.89;100.00
75157;BME280;63736;50.076;8.198;2022-12-07T08:03:48;99553.91;;;3.94;100.00
75157;BME280;63736;50.076;8.198;2022-12-07T08:06:14;99558.84;;;4.00;100.00
75157;BME280;63736;50.076;8.198;2022-12-07T08:08:39;99550.66;;;4.05;100.00
75157;BME280;63736;50.076;8.198;2022-12-07T08:11:08;99557.19;;;4.13;100.00
75157;BME280;63736;50.076;8.198;2022-12-07T08:13:34;99562.94;;;4.22;100.00
75157;BME280;63736;50.076;8.198;2022-12-07T08:16:04;99562.22;;;4.34;100.00
75157;BME280;63736;50.076;8.198;2022-12-07T08:18:30;99564.81;;;4.80;100.00
75157;BME280;63736;50.076;8.198;2022-12-07T08:20:59;99562.47;;;5.77;100.00
75157;BME280;63736;50.076;8.198;2022-12-07T08:23:26;99561.44;;;6.21;100.00
75157;BME280;63736;50.076;8.198;2022-12-07T08:25:51;99561.69;;;6.31;100.00
75157;BME280;63736;50.076;8.198;2022-12-07T08:28:16;99552.66;;;6.61;100.00
75157;BME280;63736;50.076;8.198;2022-12-07T08:30:42;99565.91;;;6.61;100.00
75157;BME280;63736;50.076;8.198;2022-12-07T08:33:07;99561.84;;;6.42;100.00
75157;BME280;63736;50.076;8.198;2022-12-07T08:35:34;99567.94;;;6.30;100.00
75157;BME280;63736;50.076;8.198;2022-12-07T08:37:59;99564.53;;;6.28;100.00
75157;BME280;63736;50.076;8.198;2022-12-07T08:40:27;99566.00;;;6.47;100.00
75157;BME280;63736;50.076;8.198;2022-12-07T08:42:52;99559.84;;;8.12;100.00
75157;BME280;63736;50.076;8.198;2022-12-07T08:45:18;99556.91;;;8.52;100.00
75157;BME280;63736;50.076;8.198;2022-12-07T08:47:51;99562.63;;;8.10;100.00
75157;BME280;63736;50.076;8.198;2022-12-07T08:50:19;99569.72;;;7.86;100.00
75157;BME280;63736;50.076;8.198;2022-12-07T08:52:48;99557.19;;;8.12;100.00
75157;BME280;63736;50.076;8.198;2022-12-07T08:55:15;99566.47;;;8.90;100.00
75157;BME280;63736;50.076;8.198;2022-12-07T08:57:41;99563.44;;;8.48;100.00
75157;BME280;63736;50.076;8.198;2022-12-07T09:00:08;99573.47;;;8.07;100.00
75157;BME280;63736;50.076;8.198;2022-12-07T09:02:33;99566.78;;;7.65;100.00
75157;BME280;63736;50.076;8.198;2022-12-07T09:04:59;99569.28;;;7.29;100.00
75157;BME280;63736;50.076;8.198;2022-12-07T09:07:25;99570.53;;;7.49;100.00
75157;BME280;63736;50.076;8.198;2022-12-07T09:09:50;99569.94;;;8.20;100.00
75157;BME280;63736;50.076;8.198;2022-12-07T09:12:15;99563.41;;;8.72;100.00
75157;BME280;63736;50.076;8.198;2022-12-07T09:14:40;99568.09;;;9.04;100.00
75157;BME280;63736;50.076;8.198;2022-12-07T09:17:11;99569.09;;;9.37;100.00
75157;BME280;63736;50.076;8.198;2022-12-07T09:19:37;99571.19;;;9.68;98.85
75157;BME280;63736;50.076;8.198;2022-12-07T09:22:03;99575.78;;;9.77;97.14
75157;BME280;63736;50.076;8.198;2022-12-07T09:24:32;99572.13;;;9.44;98.10
75157;BME280;63736;50.076;8.198;2022-12-07T09:26:58;99577.03;;;9.03;100.00
75157;BME280;63736;50.076;8.198;2022-12-07T09:29:23;99580.81;;;8.65;100.00
75157;BME280;63736;50.076;8.198;2022-12-07T09:31:49;99581.16;;;8.36;100.00
75157;BME280;63736;50.076;8.198;2022-12-07T09:34:14;99581.19;;;8.23;100.00
75157;BME280;63736;50.076;8.198;2022-12-07T09:36:39;99582.31;;;8.08;100.00
75157;BME280;63736;50.076;8.198;2022-12-07T09:39:05;99582.06;;;7.87;100.00
75157;BME280;63736;50.076;8.198;2022-12-07T09:41:31;99582.63;;;7.66;100.00
75157;BME280;63736;50.076;8.198;2022-12-07T09:44:11;99583.50;;;7.54;100.00
75157;BME280;63736;50.076;8.198;2022-12-07T09:46:40;99584.38;;;7.41;100.00
75157;BME280;63736;50.076;8.198;2022-12-07T09:49:11;99586.81;;;7.32;100.00
75157;BME280;63736;50.076;8.198;2022-12-07T09:51:38;99585.31;;;7.15;100.00
75157;BME280;63736;50.076;8.198;2022-12-07T09:54:03;99590.41;;;7.05;100.00
75157;BME280;63736;50.076;8.198;2022-12-07T09:56:29;99583.16;;;6.94;100.00
75157;BME280;63736;50.076;8.198;2022-12-07T09:59:00;99578.72;;;6.94;100.00
75157;BME280;63736;50.076;8.198;2022-12-07T10:01:31;99562.56;;;6.98;100.00
75157;BME280;63736;50.076;8.198;2022-12-07T10:04:12;99564.94;;;7.02;100.00
75157;BME280;63736;50.076;8.198;2022-12-07T10:06:39;99561.50;;;7.00;100.00
75157;BME280;63736;50.076;8.198;2022-12-07T10:09:18;99559.94;;;7.10;100.00
75157;BME280;63736;50.076;8.198;2022-12-07T10:12:07;99565.25;;;7.23;100.00
75157;BME280;63736;50.076;8.198;2022-12-07T10:14:40;99547.81;;;7.32;100.00
75157;BME280;63736;50.076;8.198;2022-12-07T10:17:29;99542.28;;;7.35;100.00
75157;BME280;63736;50.076;8.198;2022-12-07T10:22:54;99538.56;;;7.12;100.00
75157;BME280;63736;50.076;8.198;2022-12-07T10:25:21;99539.72;;;6.95;100.00
75157;BME280;63736;50.076;8.198;2022-12-07T10:28:17;99537.72;;;6.86;100.00
75157;BME280;63736;50.076;8.198;2022-12-07T10:30:56;99527.63;;;6.78;100.00
75157;BME280;63736;50.076;8.198;2022-12-07T10:33:34;99533.34;;;6.72;100.00
75157;BME280;63736;50.076;8.198;2022-12-07T10:36:14;99533.75;;;6.66;100.00
75157;BME280;63736;50.076;8.198;2022-12-07T10:38:46;99527.47;;;6.67;100.00
75157;BME280;63736;50.076;8.198;2022-12-07T10:41:11;99534.59;;;6.66;100.00
75157;BME280;63736;50.076;8.198;2022-12-07T10:43:37;99522.00;;;6.70;100.00
75157;BME280;63736;50.076;8.198;2022-12-07T10:54:12;99516.25;;;7.27;99.75
75157;BME280;63736;50.076;8.198;2022-12-07T10:57:06;99518.47;;;7.34;99.78
75157;BME280;63736;50.076;8.198;2022-12-07T10:59:41;99515.34;;;7.40;98.98
75157;BME280;63736;50.076;8.198;2022-12-07T11:02:25;99512.38;;;7.44;98.48
75157;BME280;63736;50.076;8.198;2022-12-07T11:05:45;99516.59;;;7.60;98.44
75157;BME280;63736;50.076;8.198;2022-12-07T11:16:01;99501.81;;;7.93;97.41
75157;BME280;63736;50.076;8.198;2022-12-07T11:18:46;99500.75;;;7.96;97.27
75157;BME280;63736;50.076;8.198;2022-12-07T11:21:37;99500.94;;;8.05;95.32
75157;BME280;63736;50.076;8.198;2022-12-07T11:27:20;99491.81;;;8.21;94.49
75157;BME280;63736;50.076;8.198;2022-12-07T11:32:44;99482.38;;;8.28;93.44
75157;BME280;63736;50.076;8.198;2022-12-07T11:35:45;99488.78;;;8.25;94.82
75157;BME280;63736;50.076;8.198;2022-12-07T11:38:16;99479.75;;;8.39;95.42
75157;BME280;63736;50.076;8.198;2022-12-07T11:40:49;99481.91;;;8.58;94.44
75157;BME280;63736;50.076;8.198;2022-12-07T11:43:31;99472.50;;;8.77;92.85
75157;BME280;63736;50.076;8.198;2022-12-07T11:46:13;99469.97;;;8.98;93.33
75157;BME280;63736;50.076;8.198;2022-12-07T11:49:02;99462.34;;;9.05;91.83
75157;BME280;63736;50.076;8.198;2022-12-07T11:51:32;99458.97;;;9.03;91.68
75157;BME280;63736;50.076;8.198;2022-12-07T11:54:04;99469.38;;;8.83;88.54
75157;BME280;63736;50.076;8.198;2022-12-07T11:56:35;99457.72;;;8.62;89.27
75157;BME280;63736;50.076;8.198;2022-12-07T11:59:10;99453.44;;;8.48;88.85
75157;BME280;63736;50.076;8.198;2022-12-07T12:01:44;99454.81;;;8.29;90.93
75157;BME280;63736;50.076;8.198;2022-12-07T12:04:39;99453.53;;;8.10;91.65
75157;BME280;63736;50.076;8.198;2022-12-07T12:07:15;99449.13;;;7.98;92.95
75157;BME280;63736;50.076;8.198;2022-12-07T12:09:54;99444.50;;;7.89;93.41
75157;BME280;63736;50.076;8.198;2022-12-07T12:12:38;99445.97;;;7.93;93.51
75157;BME280;63736;50.076;8.198;2022-12-07T12:15:18;99437.47;;;8.12;92.79
75157;BME280;63736;50.076;8.198;2022-12-07T12:18:12;99441.47;;;8.18;90.40
75157;BME280;63736;50.076;8.198;2022-12-07T12:23:39;99435.53;;;8.14;87.88
75157;BME280;63736;50.076;8.198;2022-12-07T12:26:08;99433.16;;;8.22;88.94
75157;BME280;63736;50.076;8.198;2022-12-07T12:28:41;99436.69;;;8.34;87.74
75157;BME280;63736;50.076;8.198;2022-12-07T12:34:02;99430.41;;;8.35;83.13
75157;BME280;63736;50.076;8.198;2022-12-07T12:44:00;99418.50;;;8.28;82.90
75157;BME280;63736;50.076;8.198;2022-12-07T12:48:54;99417.53;;;8.53;82.91
75157;BME280;63736;50.076;8.198;2022-12-07T12:51:40;99411.34;;;8.53;80.92
75157;BME280;63736;50.076;8.198;2022-12-07T12:54:14;99420.97;;;8.42;82.28
75157;BME280;63736;50.076;8.198;2022-12-07T12:57:05;99419.72;;;8.24;85.61
75157;BME280;63736;50.076;8.198;2022-12-07T12:59:35;99417.69;;;7.92;88.31
75157;BME280;63736;50.076;8.198;2022-12-07T13:02:24;99409.44;;;7.59;92.29
75157;BME280;63736;50.076;8.198;2022-12-07T13:04:55;99409.97;;;7.27;94.85
75157;BME280;63736;50.076;8.198;2022-12-07T13:12:58;99401.66;;;6.43;100.00
75157;BME280;63736;50.076;8.198;2022-12-07T13:20:57;99412.78;;;6.23;100.00
75157;BME280;63736;50.076;8.198;2022-12-07T13:31:43;99399.00;;;6.43;100.00
75157;BME280;63736;50.076;8.198;2022-12-07T13:34:36;99398.72;;;6.48;100.00
75157;BME280;63736;50.076;8.198;2022-12-07T13:37:10;99397.00;;;6.47;100.00
75157;BME280;63736;50.076;8.198;2022-12-07T13:39:46;99398.59;;;6.50;100.00
75157;BME280;63736;50.076;8.198;2022-12-07T13:42:24;99400.84;;;6.56;100.00
75157;BME280;63736;50.076;8.198;2022-12-07T13:44:51;99395.53;;;6.56;100.00
75157;BME280;63736;50.076;8.198;2022-12-07T13:47:30;99402.31;;;6.60;100.00
75157;BME280;63736;50.076;8.198;2022-12-07T13:49:57;99405.19;;;6.57;100.00
75157;BME280;63736;50.076;8.198;2022-12-07T13:52:26;99410.06;;;6.50;100.00
75157;BME280;63736;50.076;8.198;2022-12-07T13:57:24;99397.41;;;6.28;100.00
75157;BME280;63736;50.076;8.198;2022-12-07T13:59:51;99401.03;;;6.14;100.00
75157;BME280;63736;50.076;8.198;2022-12-07T14:02:23;99399.63;;;6.08;100.00
75157;BME280;63736;50.076;8.198;2022-12-07T14:04:50;99399.84;;;6.05;100.00
75157;BME280;63736;50.076;8.198;2022-12-07T14:07:23;99395.28;;;6.07;100.00
75157;BME280;63736;50.076;8.198;2022-12-07T14:10:00;99396.97;;;6.08;100.00
75157;BME280;63736;50.076;8.198;2022-12-07T14:12:28;99397.41;;;6.02;100.00
75157;BME280;63736;50.076;8.198;2022-12-07T14:14:53;99403.25;;;5.93;100.00
75157;BME280;63736;50.076;8.198;2022-12-07T14:17:22;99398.69;;;5.82;100.00
75157;BME280;63736;50.076;8.198;2022-12-07T14:19:55;99401.72;;;5.76;100.00
75157;BME280;63736;50.076;8.198;2022-12-07T14:22:29;99402.22;;;5.68;100.00
75157;BME280;63736;50.076;8.198;2022-12-07T14:25:13;99395.53;;;5.62;100.00
75157;BME280;63736;50.076;8.198;2022-12-07T14:28:00;99399.56;;;5.55;100.00
75157;BME280;63736;50.076;8.198;2022-12-07T14:30:28;99397.41;;;5.48;100.00
75157;BME280;63736;50.076;8.198;2022-12-07T14:32:59;99395.81;;;5.45;100.00
75157;BME280;63736;50.076;8.198;2022-12-07T14:35:25;99398.75;;;5.40;100.00
75157;BME280;63736;50.076;8.198;2022-12-07T14:37:51;99397.34;;;5.35;100.00
75157;BME280;63736;50.076;8.198;2022-12-07T14:40:19;99396.69;;;5.31;100.00
75157;BME280;63736;50.076;8.198;2022-12-07T14:42:47;99386.59;;;5.23;100.00
75157;BME280;63736;50.076;8.198;2022-12-07T14:45:19;99388.78;;;5.17;100.00
75157;BME280;63736;50.076;8.198;2022-12-07T14:47:45;99397.22;;;5.09;100.00
75157;BME280;63736;50.076;8.198;2022-12-07T14:50:12;99394.75;;;5.06;100.00
75157;BME280;63736;50.076;8.198;2022-12-07T14:52:39;99390.50;;;5.03;100.00